createdAt,value
2022-11-05T00:02:20.166Z,16.82
2022-11-05T00:07:40.289Z,16.80
2022-11-05T00:12:56.786Z,16.79
2022-11-05T00:17:56.960Z,16.78
2022-11-05T00:23:18.909Z,16.76
2022-11-05T00:28:17.695Z,16.68
2022-11-05T00:33:18.286Z,16.50
2022-11-05T00:38:17.141Z,16.32
2022-11-05T00:43:47.878Z,16.27
2022-11-05T00:49:05.264Z,16.37
2022-11-05T00:54:04.186Z,16.28
2022-11-05T00:59:03.031Z,16.29
2022-11-05T01:04:03.337Z,16.27
2022-11-05T01:09:02.095Z,16.19
2022-11-05T01:14:01.376Z,16.15
2022-11-05T01:19:00.345Z,16.01
2022-11-05T01:24:00.705Z,15.96
2022-11-05T01:29:00.975Z,16.00
2022-11-05T01:34:01.780Z,15.94
2022-11-05T01:39:02.612Z,15.93
2022-11-05T01:44:01.432Z,15.95
2022-11-05T01:49:08.088Z,16.07
2022-11-05T01:54:14.926Z,16.10
2022-11-05T01:59:18.044Z,16.14
2022-11-05T02:04:28.398Z,16.13
2022-11-05T02:09:32.626Z,16.15
2022-11-05T02:14:31.514Z,16.04
2022-11-05T02:20:03.519Z,16.09
2022-11-05T02:25:25.090Z,16.10
2022-11-05T02:30:35.739Z,16.15
2022-11-05T02:35:51.228Z,16.10
2022-11-05T02:40:56.537Z,15.94
2022-11-05T02:46:04.394Z,15.92
2022-11-05T02:51:10.236Z,15.92
2022-11-05T02:56:14.618Z,16.05
2022-11-05T03:01:15.044Z,16.06
2022-11-05T03:06:49.956Z,16.07
2022-11-05T03:11:59.553Z,16.12
2022-11-05T03:17:09.215Z,16.19
2022-11-05T03:22:12.627Z,16.18
2022-11-05T03:27:14.846Z,16.14
2022-11-05T03:32:17.011Z,16.20
2022-11-05T03:37:18.157Z,16.23
2022-11-05T03:42:19.311Z,16.26
2022-11-05T03:47:23.905Z,16.17
2022-11-05T03:52:27.581Z,15.98
2022-11-05T03:57:30.727Z,15.89
2022-11-05T04:02:32.314Z,15.83
2022-11-05T04:07:48.163Z,15.69
2022-11-05T04:13:04.435Z,15.61
2022-11-05T04:18:04.838Z,15.59
2022-11-05T04:23:23.020Z,15.56
2022-11-05T04:28:41.911Z,15.58
2022-11-05T04:33:42.104Z,15.50
2022-11-05T04:38:41.131Z,15.40
2022-11-05T04:43:39.969Z,15.30
2022-11-05T04:48:39.262Z,15.26
2022-11-05T04:53:39.375Z,15.26
2022-11-05T04:58:40.857Z,15.34
2022-11-05T05:03:39.702Z,15.37
2022-11-05T05:08:39.995Z,15.41
2022-11-05T05:13:38.789Z,15.41
2022-11-05T05:18:40.976Z,15.20
2022-11-05T05:23:45.643Z,15.21
2022-11-05T05:28:44.525Z,15.24
2022-11-05T05:33:43.274Z,15.28
2022-11-05T05:38:42.183Z,15.36
2022-11-05T05:43:42.373Z,15.41
2022-11-05T05:48:41.282Z,15.48
2022-11-05T05:53:40.282Z,15.54
2022-11-05T05:58:40.527Z,15.58
2022-11-05T06:03:41.240Z,15.64
2022-11-05T06:08:40.594Z,15.73
2022-11-05T06:13:39.552Z,15.75
2022-11-05T06:18:40.150Z,15.74
2022-11-05T06:23:40.656Z,15.79
2022-11-05T06:28:39.425Z,15.87
2022-11-05T06:33:38.817Z,15.95
2022-11-05T06:38:39.182Z,15.98
2022-11-05T06:43:38.393Z,16.14
2022-11-05T06:48:37.214Z,16.23
2022-11-05T06:53:36.093Z,16.37
2022-11-05T06:58:38.891Z,16.51
2022-11-05T07:03:37.490Z,16.73
2022-11-05T07:08:39.107Z,16.72
2022-11-05T07:13:42.297Z,16.87
2022-11-05T07:18:41.210Z,17.03
2022-11-05T07:23:41.537Z,17.19
2022-11-05T07:28:41.829Z,17.34
2022-11-05T07:33:41.080Z,17.48
2022-11-05T07:38:43.156Z,17.50
2022-11-05T07:43:45.244Z,17.48
2022-11-05T07:48:44.559Z,17.53
2022-11-05T07:53:45.797Z,17.65
2022-11-05T07:58:46.671Z,17.85
2022-11-05T08:03:49.592Z,18.01
2022-11-05T08:08:48.592Z,17.99
2022-11-05T08:13:50.105Z,17.97
2022-11-05T08:18:50.389Z,18.08
2022-11-05T08:23:51.247Z,18.38
2022-11-05T08:28:51.703Z,18.46
2022-11-05T08:33:50.683Z,18.72
2022-11-05T08:38:49.577Z,18.95
2022-11-05T08:43:48.488Z,19.10
2022-11-05T08:48:48.875Z,19.53
2022-11-05T08:53:48.388Z,19.88
2022-11-05T08:58:47.362Z,20.17
2022-11-05T09:03:46.426Z,20.87
2022-11-05T09:08:46.914Z,21.06
2022-11-05T09:13:45.859Z,21.41
2022-11-05T09:18:44.834Z,21.63
2022-11-05T09:23:43.690Z,22.20
2022-11-05T09:28:44.527Z,22.77
2022-11-05T09:33:43.344Z,22.95
2022-11-05T09:38:42.165Z,22.87
2022-11-05T09:43:46.147Z,23.50
2022-11-05T09:48:49.335Z,23.95
2022-11-05T09:53:48.716Z,23.74
2022-11-05T09:58:52.959Z,23.36
2022-11-05T10:03:56.417Z,23.02
2022-11-05T10:09:21.938Z,22.88
2022-11-05T10:14:26.027Z,24.52
2022-11-05T10:19:27.996Z,24.88
2022-11-05T10:24:36.997Z,24.79
2022-11-05T10:29:37.855Z,25.21
2022-11-05T10:34:39.583Z,25.06
2022-11-05T10:39:38.878Z,25.30
2022-11-05T10:44:47.831Z,25.55
2022-11-05T10:49:55.750Z,25.91
2022-11-05T10:54:58.964Z,26.93
2022-11-05T11:00:24.904Z,27.70
2022-11-05T11:05:26.998Z,27.38
2022-11-05T11:10:27.660Z,28.42
2022-11-05T11:15:33.354Z,28.50
2022-11-05T11:20:33.954Z,28.59
2022-11-05T11:25:40.953Z,28.84
2022-11-05T11:30:50.452Z,29.06
2022-11-05T11:35:50.325Z,29.37
2022-11-05T11:40:49.348Z,29.34
2022-11-05T11:45:53.089Z,29.01
2022-11-05T11:50:52.481Z,28.85
2022-11-05T11:56:01.044Z,29.13
2022-11-05T12:01:16.675Z,28.87
2022-11-05T12:06:26.483Z,29.80
2022-11-05T12:11:41.851Z,29.79
2022-11-05T12:23:46.268Z,29.31
2022-11-05T12:34:36.113Z,29.50
2022-11-05T12:39:47.327Z,29.18
2022-11-05T12:45:30.194Z,28.88
2022-11-05T12:51:17.433Z,28.24
2022-11-05T12:56:42.040Z,28.43
2022-11-05T13:01:50.883Z,29.18
2022-11-05T13:06:57.129Z,29.25
2022-11-05T13:12:00.433Z,29.42
2022-11-05T13:17:03.747Z,29.43
2022-11-05T13:22:14.826Z,29.31
2022-11-05T13:27:32.061Z,29.65
2022-11-05T13:33:19.159Z,29.26
2022-11-05T13:44:45.524Z,28.61
2022-11-05T13:50:13.728Z,28.51
2022-11-05T13:55:39.307Z,27.86
2022-11-05T14:07:42.207Z,27.30
2022-11-05T14:12:48.826Z,27.07
2022-11-05T14:18:00.536Z,26.61
2022-11-05T14:23:30.826Z,26.41
2022-11-05T14:28:41.124Z,26.07
2022-11-05T14:33:41.603Z,25.75
2022-11-05T14:38:48.113Z,25.37
2022-11-05T14:43:55.581Z,25.01
2022-11-05T14:49:05.138Z,24.69
2022-11-05T14:54:20.503Z,24.34
2022-11-05T14:59:51.999Z,23.80
2022-11-05T15:04:53.340Z,23.48
2022-11-05T15:10:02.332Z,23.09
2022-11-05T15:15:23.063Z,22.91
2022-11-05T15:20:25.334Z,22.72
2022-11-05T15:25:30.718Z,22.44
2022-11-05T15:30:31.503Z,22.26
2022-11-05T15:35:31.532Z,21.92
2022-11-05T15:40:35.872Z,21.79
2022-11-05T15:45:37.458Z,21.62
2022-11-05T15:50:36.260Z,21.40
2022-11-05T15:55:35.357Z,21.10
2022-11-05T16:00:37.784Z,21.02
2022-11-05T16:05:43.236Z,20.89
2022-11-05T16:10:49.084Z,20.84
2022-11-05T16:15:56.938Z,20.55
2022-11-05T16:21:07.300Z,20.32
2022-11-05T16:26:06.320Z,20.29
2022-11-05T16:31:06.954Z,20.13
2022-11-05T16:36:06.731Z,19.92
2022-11-05T16:41:05.538Z,19.72
2022-11-05T16:46:04.487Z,19.75
2022-11-05T16:51:04.842Z,19.73
2022-11-05T16:56:03.957Z,19.61
2022-11-05T17:01:05.736Z,19.50
2022-11-05T17:06:06.630Z,19.29
2022-11-05T17:11:05.650Z,19.26
2022-11-05T17:16:05.881Z,19.20
2022-11-05T17:21:26.563Z,19.00
2022-11-05T17:32:23.913Z,18.87
2022-11-05T17:37:24.141Z,18.91
2022-11-05T17:42:37.155Z,18.94
2022-11-05T17:47:41.776Z,18.84
2022-11-05T17:53:01.444Z,18.85
2022-11-05T17:58:52.917Z,18.87
2022-11-05T18:03:52.536Z,18.76
2022-11-05T18:08:53.602Z,18.73
2022-11-05T18:13:53.027Z,18.64
2022-11-05T18:18:53.079Z,18.68
2022-11-05T18:23:54.217Z,18.52
2022-11-05T18:28:53.632Z,18.39
2022-11-05T18:33:57.982Z,18.39
2022-11-05T18:39:01.682Z,18.35
2022-11-05T18:44:01.435Z,18.09
2022-11-05T18:49:00.796Z,18.05
2022-11-05T18:54:01.109Z,18.03
2022-11-05T18:59:29.887Z,17.96
2022-11-05T19:04:18.874Z,17.89
2022-11-05T19:09:21.028Z,17.89
2022-11-05T19:14:19.960Z,17.79
2022-11-05T19:19:18.816Z,17.55
2022-11-05T19:24:23.778Z,17.39
2022-11-05T19:29:23.828Z,17.40
2022-11-05T19:34:26.434Z,17.16
2022-11-05T19:39:28.738Z,17.05
2022-11-05T19:44:28.855Z,17.03
2022-11-05T19:49:28.563Z,16.91
2022-11-05T19:54:28.764Z,16.83
2022-11-05T19:59:27.593Z,16.85
2022-11-05T20:04:26.600Z,16.86
2022-11-05T20:09:26.071Z,16.87
2022-11-05T20:14:32.316Z,16.63
2022-11-05T20:19:35.346Z,16.56
2022-11-05T20:24:34.538Z,16.46
2022-11-05T20:29:35.930Z,16.34
2022-11-05T20:34:35.866Z,16.37
2022-11-05T20:39:34.763Z,16.32
2022-11-05T20:44:39.709Z,16.33
2022-11-05T20:49:38.831Z,16.39
2022-11-05T20:54:38.733Z,16.24
2022-11-05T20:59:38.525Z,16.08
2022-11-05T21:04:40.404Z,16.07
2022-11-05T21:09:39.185Z,15.98
2022-11-05T21:14:38.717Z,15.78
2022-11-05T21:19:40.039Z,15.77
2022-11-05T21:24:38.966Z,15.63
2022-11-05T21:29:41.483Z,15.55
2022-11-05T21:34:42.114Z,15.42
2022-11-05T21:39:42.434Z,15.51
2022-11-05T21:44:42.484Z,15.52
2022-11-05T21:49:42.619Z,15.40
2022-11-05T21:54:59.056Z,15.34
2022-11-05T22:00:00.595Z,15.24
2022-11-05T22:05:00.761Z,15.21
2022-11-05T22:09:59.737Z,15.00
2022-11-05T22:14:58.636Z,15.13
2022-11-05T22:19:57.752Z,15.10
2022-11-05T22:24:57.945Z,14.98
2022-11-05T22:29:56.903Z,14.78
2022-11-05T22:34:55.729Z,14.70
2022-11-05T22:39:54.991Z,14.76
2022-11-05T22:44:55.485Z,14.78
2022-11-05T22:49:54.229Z,14.71
2022-11-05T22:54:53.104Z,14.46
2022-11-05T22:59:51.864Z,14.29
2022-11-05T23:04:53.786Z,14.29
2022-11-05T23:10:10.082Z,14.32
2022-11-05T23:15:29.804Z,14.20
2022-11-05T23:20:47.543Z,14.24
2022-11-05T23:25:46.536Z,14.30
2022-11-05T23:30:59.863Z,14.35
2022-11-05T23:36:17.635Z,14.24
2022-11-05T23:41:33.928Z,14.02
2022-11-05T23:46:50.262Z,13.89
2022-11-05T23:51:50.951Z,14.06
2022-11-05T23:56:49.733Z,14.11
